Aeroporto :
LOGIN :

Iscrizione | Disclaimer

   EN    FR    IT 

 










Sommario :    VFR   VFR Marginale   IFR   IFR Intensivo   IFR Molto Intensivo
Visibilità : 
Base nubi : 
>= 8 km
>= 3000ft
5 / 8 km
1000 / 3000 ft
1500m / 5 km
500 / 1000 ft
800 / 1500m
200 / 500 ft
< 800m
< 200 ft
Simboli :   Temporali  Nebbia  Neve Forte  Precipitazioni Forti  Vento > 20 kt
SIGMETs :   Varie  Temporali  Ghiacco  Turbolenza  Onda orograficha  Ceneri Vulcaniche






- Altitudine del aeroporto : 3 ft
- Codice IATA : DHR


EHKD - Den Helder De Kooy

ULTIMO METAR :
  • 070055Z AUTO 28015KT 250V310 9999 FEW017 BKN024 BKN027 10/08 Q1002 WHT

METARs OBSOLETI :
  • 070045Z AUTO 28015KT 240V310 9999 FEW018 SCT023 BKN028 10/08 Q1002 WHT
  • 070035Z AUTO 28014KT 9999 FEW017 OVC026 10/08 Q1002 BLU
  • 070027Z AUTO 28014KT 260V320 9999 SCT015 BKN018 BKN023 10/08 Q1002 WHT
  • 070011Z AUTO 29015KT 250V320 9999 FEW014 OVC027 10/08 Q1002 BLU
  • 070002Z AUTO 29015KT 260V320 9999 SCT015 OVC031 10/08 Q1002 WHT
  • 062355Z AUTO 28015KT 250V320 9999 FEW014 SCT018 OVC032 10/08 Q1001 WHT
  • 062340Z AUTO 28016KT 260V320 9999 SCT014 BKN017 OVC020 10/08 Q1001 GRN
  • 062325Z AUTO 28016KT 250V310 9999 SCT015 BKN018 BKN022 10/08 Q1001 WHT
  • 062255Z AUTO 28018KT 250V320 9999 FEW015CB SCT016 BKN021 BKN025 10/08 Q1000 WHT
  • 062249Z AUTO 28018KT 240V310 9999 SCT015CB SCT018 BKN027 10/08 Q1000 WHT
  • 062245Z AUTO 28018KT 240V310 9999 FEW014 FEW015CB SCT016 BKN026 10/08 Q1000 WHT
  • 062227Z AUTO 28018KT 260V320 9999 FEW013 SCT016 BKN019 10/08 Q1000 WHT
  • 062225Z AUTO 28018KT 9999 FEW012 SCT014 BKN017 10/08 Q1000 GRN
  • 062157Z AUTO 28016KT 240V310 9999 FEW013 FEW015CB BKN016 BKN019 10/09 Q0999 WHT

TAF COR TAF EHKD
Valido dal 06 a 18 ore il 07 a 06 ore UTC


061737Z 0618/0706 21020G30KT 9999 SCT005 BKN010
BECMG 0618/0621 28018G28KT SCT012 BKN015
PROB30
TEMPO 0618/0620 3000 DZRA SCT003 OVC005
TEMPO 0619/0701 28018G36KT 4000 SHRA SCT010 SCT018CB
PROB30
TEMPO 0620/0700 3000 TSRA SHRA SCT008 SCT015CB
BECMG 0700/0703 SCT015 BKN020



MetMap, La meteo Aeronautica in un colpo d'occhio ! - Copyright ORBIFLY Dicembre 2007 - Disclaimer

ORBIFLY MET'MAP TEAM :

Programmazione e sviluppo : Alexandra Zaïnal
Concezione : Baudouin d'Aumeries
Aiuto per la programmazione : Marc-Olivier Méhu
Supporto tecnico e logistico : Manuel Goepfert
Aiuto per la traduzione : Arnaldo La Scala

Contatto : metmap@orbifly.com




FONTI E CREDITI :

   NOAA